sensor_id;sensor_type;location;lat;lon;timestamp;temperature;humidity
2851;DHT22;1433;49.976;8.342;2022-08-11T00:01:06;21.30;99.90
2851;DHT22;1433;49.976;8.342;2022-08-11T00:03:33;21.20;99.90
2851;DHT22;1433;49.976;8.342;2022-08-11T00:06:01;21.20;99.90
2851;DHT22;1433;49.976;8.342;2022-08-11T00:08:29;21.10;99.90
2851;DHT22;1433;49.976;8.342;2022-08-11T00:10:59;21.10;99.90
2851;DHT22;1433;49.976;8.342;2022-08-11T00:13:38;21.10;99.90
2851;DHT22;1433;49.976;8.342;2022-08-11T00:16:13;21.10;99.90
2851;DHT22;1433;49.976;8.342;2022-08-11T00:18:42;21.00;99.90
2851;DHT22;1433;49.976;8.342;2022-08-11T00:21:10;21.00;99.90
2851;DHT22;1433;49.976;8.342;2022-08-11T00:23:45;21.00;99.90
2851;DHT22;1433;49.976;8.342;2022-08-11T00:26:13;20.90;99.90
2851;DHT22;1433;49.976;8.342;2022-08-11T00:28:40;20.90;99.90
2851;DHT22;1433;49.976;8.342;2022-08-11T00:31:08;20.90;99.90
2851;DHT22;1433;49.976;8.342;2022-08-11T00:33:43;20.90;99.90
2851;DHT22;1433;49.976;8.342;2022-08-11T00:36:15;20.90;99.90
2851;DHT22;1433;49.976;8.342;2022-08-11T00:38:41;20.80;99.90
2851;DHT22;1433;49.976;8.342;2022-08-11T00:41:15;20.80;99.90
2851;DHT22;1433;49.976;8.342;2022-08-11T00:43:48;20.80;99.90
2851;DHT22;1433;49.976;8.342;2022-08-11T00:52:20;20.70;99.90
2851;DHT22;1433;49.976;8.342;2022-08-11T01:00:21;20.60;99.90
2851;DHT22;1433;49.976;8.342;2022-08-11T01:05:44;20.40;99.90
2851;DHT22;1433;49.976;8.342;2022-08-11T01:08:41;20.40;99.90
2851;DHT22;1433;49.976;8.342;2022-08-11T01:11:33;20.40;99.90
2851;DHT22;1433;49.976;8.342;2022-08-11T01:19:52;20.30;99.90
2851;DHT22;1433;49.976;8.342;2022-08-11T01:45:35;19.80;99.90
2851;DHT22;1433;49.976;8.342;2022-08-11T01:48:06;19.70;99.90
2851;DHT22;1433;49.976;8.342;2022-08-11T01:50:53;19.60;99.90
2851;DHT22;1433;49.976;8.342;2022-08-11T01:56:04;19.40;99.90
2851;DHT22;1433;49.976;8.342;2022-08-11T01:58:52;19.40;99.90
2851;DHT22;1433;49.976;8.342;2022-08-11T02:09:41;19.30;99.90
2851;DHT22;1433;49.976;8.342;2022-08-11T02:15:06;19.30;99.90
2851;DHT22;1433;49.976;8.342;2022-08-11T02:17:46;19.30;99.90
2851;DHT22;1433;49.976;8.342;2022-08-11T02:20:23;19.30;99.90
2851;DHT22;1433;49.976;8.342;2022-08-11T02:23:36;19.20;99.90
2851;DHT22;1433;49.976;8.342;2022-08-11T02:26:18;19.20;99.90
2851;DHT22;1433;49.976;8.342;2022-08-11T02:34:57;19.20;99.90
2851;DHT22;1433;49.976;8.342;2022-08-11T02:40:24;19.20;99.90
2851;DHT22;1433;49.976;8.342;2022-08-11T02:48:13;19.10;99.90
2851;DHT22;1433;49.976;8.342;2022-08-11T02:51:12;19.10;99.90
2851;DHT22;1433;49.976;8.342;2022-08-11T02:53:47;19.10;99.90
2851;DHT22;1433;49.976;8.342;2022-08-11T02:56:26;19.10;99.90
2851;DHT22;1433;49.976;8.342;2022-08-11T03:04:58;18.90;99.90
2851;DHT22;1433;49.976;8.342;2022-08-11T03:10:33;18.90;99.90
2851;DHT22;1433;49.976;8.342;2022-08-11T03:13:20;18.80;99.90
2851;DHT22;1433;49.976;8.342;2022-08-11T03:16:28;18.80;99.90
2851;DHT22;1433;49.976;8.342;2022-08-11T03:30:18;18.70;99.90
2851;DHT22;1433;49.976;8.342;2022-08-11T03:33:07;18.70;99.90
2851;DHT22;1433;49.976;8.342;2022-08-11T03:39:23;18.70;99.90
2851;DHT22;1433;49.976;8.342;2022-08-11T03:50:15;18.60;99.90
2851;DHT22;1433;49.976;8.342;2022-08-11T03:52:52;18.60;99.90
2851;DHT22;1433;49.976;8.342;2022-08-11T04:24:26;18.40;99.90
2851;DHT22;1433;49.976;8.342;2022-08-11T04:30:17;18.40;99.90
2851;DHT22;1433;49.976;8.342;2022-08-11T04:44:06;18.30;99.90
2851;DHT22;1433;49.976;8.342;2022-08-11T04:52:27;18.30;99.90
2851;DHT22;1433;49.976;8.342;2022-08-11T04:58:43;18.30;99.90
2851;DHT22;1433;49.976;8.342;2022-08-11T05:01:34;18.30;99.90
2851;DHT22;1433;49.976;8.342;2022-08-11T05:05:14;18.30;99.90
2851;DHT22;1433;49.976;8.342;2022-08-11T05:10:17;18.40;99.90
2851;DHT22;1433;49.976;8.342;2022-08-11T05:15:29;18.50;99.90
2851;DHT22;1433;49.976;8.342;2022-08-11T05:18:13;18.60;99.90
2851;DHT22;1433;49.976;8.342;2022-08-11T05:21:04;18.60;99.90
2851;DHT22;1433;49.976;8.342;2022-08-11T05:23:52;18.70;99.90
2851;DHT22;1433;49.976;8.342;2022-08-11T05:26:46;18.80;99.90
2851;DHT22;1433;49.976;8.342;2022-08-11T05:29:50;18.80;99.90
2851;DHT22;1433;49.976;8.342;2022-08-11T05:32:37;18.90;99.90
2851;DHT22;1433;49.976;8.342;2022-08-11T05:35:30;19.00;99.90
2851;DHT22;1433;49.976;8.342;2022-08-11T05:37:55;19.10;99.90
2851;DHT22;1433;49.976;8.342;2022-08-11T05:40:48;19.20;99.90
2851;DHT22;1433;49.976;8.342;2022-08-11T05:43:40;19.20;99.90
2851;DHT22;1433;49.976;8.342;2022-08-11T05:46:23;19.30;99.90
2851;DHT22;1433;49.976;8.342;2022-08-11T05:49:12;19.40;99.90
2851;DHT22;1433;49.976;8.342;2022-08-11T05:51:58;19.50;99.90
2851;DHT22;1433;49.976;8.342;2022-08-11T05:54:43;19.50;99.90
2851;DHT22;1433;49.976;8.342;2022-08-11T05:57:35;19.70;99.90
2851;DHT22;1433;49.976;8.342;2022-08-11T06:00:05;19.80;99.90
2851;DHT22;1433;49.976;8.342;2022-08-11T06:02:32;19.90;99.90
2851;DHT22;1433;49.976;8.342;2022-08-11T06:05:01;20.00;99.90
2851;DHT22;1433;49.976;8.342;2022-08-11T06:07:29;20.10;99.90
2851;DHT22;1433;49.976;8.342;2022-08-11T06:09:58;20.10;99.90
2851;DHT22;1433;49.976;8.342;2022-08-11T06:12:28;20.30;99.90
2851;DHT22;1433;49.976;8.342;2022-08-11T06:15:04;20.30;99.90
2851;DHT22;1433;49.976;8.342;2022-08-11T06:17:34;20.40;99.90
2851;DHT22;1433;49.976;8.342;2022-08-11T06:20:04;20.50;99.90
2851;DHT22;1433;49.976;8.342;2022-08-11T06:22:31;20.60;99.90
2851;DHT22;1433;49.976;8.342;2022-08-11T06:25:00;20.80;99.90
2851;DHT22;1433;49.976;8.342;2022-08-11T06:27:32;20.90;99.90
2851;DHT22;1433;49.976;8.342;2022-08-11T06:29:59;20.90;99.90
2851;DHT22;1433;49.976;8.342;2022-08-11T06:32:30;21.00;99.90
2851;DHT22;1433;49.976;8.342;2022-08-11T06:40:52;21.30;99.90
2851;DHT22;1433;49.976;8.342;2022-08-11T06:46:17;21.50;99.90
2851;DHT22;1433;49.976;8.342;2022-08-11T06:48:44;21.60;99.90
2851;DHT22;1433;49.976;8.342;2022-08-11T06:51:11;21.70;99.90
2851;DHT22;1433;49.976;8.342;2022-08-11T06:53:51;21.70;99.90
2851;DHT22;1433;49.976;8.342;2022-08-11T06:56:23;21.80;99.90
2851;DHT22;1433;49.976;8.342;2022-08-11T06:59:09;21.90;99.90
2851;DHT22;1433;49.976;8.342;2022-08-11T07:05:05;22.00;99.90
2851;DHT22;1433;49.976;8.342;2022-08-11T07:14:01;22.30;99.90
2851;DHT22;1433;49.976;8.342;2022-08-11T07:16:49;22.40;99.90
2851;DHT22;1433;49.976;8.342;2022-08-11T07:19:20;22.50;99.90
2851;DHT22;1433;49.976;8.342;2022-08-11T07:22:13;22.50;99.90
2851;DHT22;1433;49.976;8.342;2022-08-11T07:28:11;22.70;99.90
2851;DHT22;1433;49.976;8.342;2022-08-11T07:31:13;22.80;99.90
2851;DHT22;1433;49.976;8.342;2022-08-11T07:33:43;22.80;99.90
2851;DHT22;1433;49.976;8.342;2022-08-11T07:36:12;22.90;99.90
2851;DHT22;1433;49.976;8.342;2022-08-11T07:38:48;22.90;99.90
2851;DHT22;1433;49.976;8.342;2022-08-11T07:41:18;23.00;99.90
2851;DHT22;1433;49.976;8.342;2022-08-11T07:43:51;23.10;99.90
2851;DHT22;1433;49.976;8.342;2022-08-11T07:46:18;23.20;99.90
2851;DHT22;1433;49.976;8.342;2022-08-11T07:49:06;23.20;99.90
2851;DHT22;1433;49.976;8.342;2022-08-11T07:51:53;23.30;99.90
2851;DHT22;1433;49.976;8.342;2022-08-11T07:54:39;23.40;99.90
2851;DHT22;1433;49.976;8.342;2022-08-11T07:57:09;23.50;99.90
2851;DHT22;1433;49.976;8.342;2022-08-11T07:59:56;23.50;99.90
2851;DHT22;1433;49.976;8.342;2022-08-11T08:02:45;23.60;99.90
2851;DHT22;1433;49.976;8.342;2022-08-11T08:05:30;23.60;99.90
2851;DHT22;1433;49.976;8.342;2022-08-11T08:08:15;23.80;99.90
2851;DHT22;1433;49.976;8.342;2022-08-11T08:11:00;23.80;99.90
2851;DHT22;1433;49.976;8.342;2022-08-11T08:13:45;23.90;99.90
2851;DHT22;1433;49.976;8.342;2022-08-11T08:16:31;24.10;99.90
2851;DHT22;1433;49.976;8.342;2022-08-11T08:19:18;24.10;99.90
2851;DHT22;1433;49.976;8.342;2022-08-11T08:21:46;24.30;99.90
2851;DHT22;1433;49.976;8.342;2022-08-11T08:24:13;24.30;99.90
2851;DHT22;1433;49.976;8.342;2022-08-11T08:26:42;24.30;99.90
2851;DHT22;1433;49.976;8.342;2022-08-11T08:29:33;24.40;99.90
2851;DHT22;1433;49.976;8.342;2022-08-11T08:32:18;24.60;99.90
2851;DHT22;1433;49.976;8.342;2022-08-11T08:34:45;24.70;99.90
2851;DHT22;1433;49.976;8.342;2022-08-11T08:37:19;24.70;99.90
2851;DHT22;1433;49.976;8.342;2022-08-11T08:39:47;24.80;99.90
2851;DHT22;1433;49.976;8.342;2022-08-11T08:42:24;24.90;99.90
2851;DHT22;1433;49.976;8.342;2022-08-11T08:44:55;25.10;99.90
2851;DHT22;1433;49.976;8.342;2022-08-11T08:47:22;25.20;99.90
2851;DHT22;1433;49.976;8.342;2022-08-11T08:49:54;25.40;99.90
2851;DHT22;1433;49.976;8.342;2022-08-11T08:52:22;25.50;99.90
2851;DHT22;1433;49.976;8.342;2022-08-11T08:54:57;25.60;99.90
2851;DHT22;1433;49.976;8.342;2022-08-11T08:57:25;25.60;99.90
2851;DHT22;1433;49.976;8.342;2022-08-11T08:59:51;25.70;99.90
2851;DHT22;1433;49.976;8.342;2022-08-11T09:02:22;25.80;99.90
2851;DHT22;1433;49.976;8.342;2022-08-11T09:04:48;25.90;99.90
2851;DHT22;1433;49.976;8.342;2022-08-11T09:07:17;26.10;99.90
2851;DHT22;1433;49.976;8.342;2022-08-11T09:09:50;26.10;99.90
2851;DHT22;1433;49.976;8.342;2022-08-11T09:12:20;26.20;99.90
2851;DHT22;1433;49.976;8.342;2022-08-11T09:14:49;26.20;99.90
2851;DHT22;1433;49.976;8.342;2022-08-11T09:17:43;26.20;99.90
2851;DHT22;1433;49.976;8.342;2022-08-11T09:20:18;26.30;99.90
2851;DHT22;1433;49.976;8.342;2022-08-11T09:22:47;26.40;99.90
2851;DHT22;1433;49.976;8.342;2022-08-11T09:25:33;26.50;99.90
2851;DHT22;1433;49.976;8.342;2022-08-11T09:28:20;26.60;99.90
2851;DHT22;1433;49.976;8.342;2022-08-11T09:30:51;26.70;99.90
2851;DHT22;1433;49.976;8.342;2022-08-11T09:33:21;26.80;99.90
2851;DHT22;1433;49.976;8.342;2022-08-11T09:35:49;26.90;99.90
2851;DHT22;1433;49.976;8.342;2022-08-11T09:38:18;27.00;99.90
2851;DHT22;1433;49.976;8.342;2022-08-11T09:41:05;27.10;99.90
2851;DHT22;1433;49.976;8.342;2022-08-11T09:43:44;27.20;99.90
2851;DHT22;1433;49.976;8.342;2022-08-11T09:46:29;27.20;99.90
2851;DHT22;1433;49.976;8.342;2022-08-11T09:48:59;27.30;99.90
2851;DHT22;1433;49.976;8.342;2022-08-11T09:51:30;27.50;99.90
2851;DHT22;1433;49.976;8.342;2022-08-11T09:53:59;27.60;99.90
2851;DHT22;1433;49.976;8.342;2022-08-11T09:56:27;27.70;99.90
2851;DHT22;1433;49.976;8.342;2022-08-11T09:59:12;27.70;99.90
2851;DHT22;1433;49.976;8.342;2022-08-11T10:01:46;27.80;99.90
2851;DHT22;1433;49.976;8.342;2022-08-11T10:04:17;27.90;99.90
2851;DHT22;1433;49.976;8.342;2022-08-11T10:06:48;28.00;99.90
2851;DHT22;1433;49.976;8.342;2022-08-11T10:10:00;28.10;99.90
2851;DHT22;1433;49.976;8.342;2022-08-11T10:12:32;28.20;99.90
2851;DHT22;1433;49.976;8.342;2022-08-11T10:15:03;28.40;99.90
2851;DHT22;1433;49.976;8.342;2022-08-11T10:17:52;28.60;99.90
2851;DHT22;1433;49.976;8.342;2022-08-11T10:20:38;28.80;99.90
2851;DHT22;1433;49.976;8.342;2022-08-11T10:23:07;29.00;99.90
2851;DHT22;1433;49.976;8.342;2022-08-11T10:25:53;29.20;99.90
2851;DHT22;1433;49.976;8.342;2022-08-11T10:28:38;29.20;99.90
2851;DHT22;1433;49.976;8.342;2022-08-11T10:31:06;29.40;99.90
2851;DHT22;1433;49.976;8.342;2022-08-11T10:33:53;29.40;99.90
2851;DHT22;1433;49.976;8.342;2022-08-11T10:39:00;29.60;99.90
2851;DHT22;1433;49.976;8.342;2022-08-11T10:41:27;29.60;99.90
2851;DHT22;1433;49.976;8.342;2022-08-11T10:44:13;29.40;99.90
2851;DHT22;1433;49.976;8.342;2022-08-11T10:46:39;29.60;99.90
2851;DHT22;1433;49.976;8.342;2022-08-11T10:49:25;29.50;99.90
2851;DHT22;1433;49.976;8.342;2022-08-11T10:51:54;29.60;99.90
2851;DHT22;1433;49.976;8.342;2022-08-11T10:54:40;29.70;99.90
2851;DHT22;1433;49.976;8.342;2022-08-11T10:57:27;29.90;99.90
2851;DHT22;1433;49.976;8.342;2022-08-11T11:00:13;30.90;99.90
2851;DHT22;1433;49.976;8.342;2022-08-11T11:02:42;33.10;99.90
2851;DHT22;1433;49.976;8.342;2022-08-11T11:05:12;34.90;99.90
2851;DHT22;1433;49.976;8.342;2022-08-11T11:10:11;37.50;99.90
2851;DHT22;1433;49.976;8.342;2022-08-11T11:12:42;38.70;99.90
2851;DHT22;1433;49.976;8.342;2022-08-11T11:15:30;39.30;99.90
2851;DHT22;1433;49.976;8.342;2022-08-11T11:18:20;39.40;99.90
2851;DHT22;1433;49.976;8.342;2022-08-11T11:21:06;39.30;99.90
2851;DHT22;1433;49.976;8.342;2022-08-11T11:23:48;39.20;99.90
2851;DHT22;1433;49.976;8.342;2022-08-11T11:32:19;41.20;99.90
2851;DHT22;1433;49.976;8.342;2022-08-11T11:37:32;41.40;99.90
2851;DHT22;1433;49.976;8.342;2022-08-11T11:40:07;41.80;99.90
2851;DHT22;1433;49.976;8.342;2022-08-11T11:42:32;41.30;99.90
2851;DHT22;1433;49.976;8.342;2022-08-11T11:44:58;41.20;99.90
2851;DHT22;1433;49.976;8.342;2022-08-11T11:47:25;41.20;99.90
2851;DHT22;1433;49.976;8.342;2022-08-11T11:49:51;41.60;99.90
2851;DHT22;1433;49.976;8.342;2022-08-11T11:52:19;42.20;99.90
2851;DHT22;1433;49.976;8.342;2022-08-11T11:54:47;41.50;99.90
2851;DHT22;1433;49.976;8.342;2022-08-11T11:57:19;41.50;99.90
2851;DHT22;1433;49.976;8.342;2022-08-11T12:00:11;41.70;99.90
2851;DHT22;1433;49.976;8.342;2022-08-11T12:03:00;42.30;99.90
2851;DHT22;1433;49.976;8.342;2022-08-11T12:05:27;42.70;99.90
2851;DHT22;1433;49.976;8.342;2022-08-11T12:07:55;42.60;99.90
2851;DHT22;1433;49.976;8.342;2022-08-11T12:10:46;42.70;99.90
2851;DHT22;1433;49.976;8.342;2022-08-11T12:13:14;43.20;99.90
2851;DHT22;1433;49.976;8.342;2022-08-11T12:16:00;42.80;99.90
2851;DHT22;1433;49.976;8.342;2022-08-11T12:18:35;42.70;99.90
2851;DHT22;1433;49.976;8.342;2022-08-11T12:21:01;42.40;99.90
2851;DHT22;1433;49.976;8.342;2022-08-11T12:23:28;42.80;99.90
2851;DHT22;1433;49.976;8.342;2022-08-11T12:26:14;43.00;99.90
2851;DHT22;1433;49.976;8.342;2022-08-11T12:28:59;43.60;99.90
2851;DHT22;1433;49.976;8.342;2022-08-11T12:31:30;43.60;99.90
2851;DHT22;1433;49.976;8.342;2022-08-11T12:34:05;44.00;99.90
2851;DHT22;1433;49.976;8.342;2022-08-11T12:36:48;43.30;99.90
2851;DHT22;1433;49.976;8.342;2022-08-11T12:39:12;43.50;99.90
2851;DHT22;1433;49.976;8.342;2022-08-11T12:41:42;43.90;99.90
2851;DHT22;1433;49.976;8.342;2022-08-11T12:44:28;44.30;99.90
2851;DHT22;1433;49.976;8.342;2022-08-11T12:47:16;44.00;99.90
2851;DHT22;1433;49.976;8.342;2022-08-11T12:49:46;44.40;99.90
2851;DHT22;1433;49.976;8.342;2022-08-11T12:52:44;44.60;99.90
2851;DHT22;1433;49.976;8.342;2022-08-11T12:55:16;44.40;99.90
2851;DHT22;1433;49.976;8.342;2022-08-11T12:57:46;44.10;99.90
2851;DHT22;1433;49.976;8.342;2022-08-11T13:00:31;43.70;99.90
2851;DHT22;1433;49.976;8.342;2022-08-11T13:03:20;43.80;99.90
2851;DHT22;1433;49.976;8.342;2022-08-11T13:06:06;43.90;99.90
2851;DHT22;1433;49.976;8.342;2022-08-11T13:08:36;43.90;99.90
2851;DHT22;1433;49.976;8.342;2022-08-11T13:11:03;44.40;99.90
2851;DHT22;1433;49.976;8.342;2022-08-11T13:13:48;44.60;99.90
2851;DHT22;1433;49.976;8.342;2022-08-11T13:16:16;44.80;99.90
2851;DHT22;1433;49.976;8.342;2022-08-11T13:18:43;44.70;99.90
2851;DHT22;1433;49.976;8.342;2022-08-11T13:21:11;44.60;99.90
2851;DHT22;1433;49.976;8.342;2022-08-11T13:23:39;44.00;99.90
2851;DHT22;1433;49.976;8.342;2022-08-11T13:26:06;44.40;99.90
2851;DHT22;1433;49.976;8.342;2022-08-11T13:28:35;44.40;99.90
2851;DHT22;1433;49.976;8.342;2022-08-11T13:31:02;44.70;99.90
2851;DHT22;1433;49.976;8.342;2022-08-11T13:33:42;44.50;99.90
2851;DHT22;1433;49.976;8.342;2022-08-11T13:36:10;44.70;99.90
2851;DHT22;1433;49.976;8.342;2022-08-11T13:38:39;44.90;99.90
2851;DHT22;1433;49.976;8.342;2022-08-11T13:41:06;44.90;99.90
2851;DHT22;1433;49.976;8.342;2022-08-11T13:43:35;44.70;99.90
2851;DHT22;1433;49.976;8.342;2022-08-11T13:46:03;45.00;99.90
2851;DHT22;1433;49.976;8.342;2022-08-11T13:48:45;45.10;99.90
2851;DHT22;1433;49.976;8.342;2022-08-11T13:51:12;44.70;99.90
2851;DHT22;1433;49.976;8.342;2022-08-11T13:54:04;44.20;99.90
2851;DHT22;1433;49.976;8.342;2022-08-11T13:56:32;44.10;99.90
2851;DHT22;1433;49.976;8.342;2022-08-11T13:59:00;44.30;99.90
2851;DHT22;1433;49.976;8.342;2022-08-11T14:01:30;44.10;99.90
2851;DHT22;1433;49.976;8.342;2022-08-11T14:04:02;44.30;99.90
2851;DHT22;1433;49.976;8.342;2022-08-11T14:06:26;44.40;99.90
2851;DHT22;1433;49.976;8.342;2022-08-11T14:08:53;44.40;99.90
2851;DHT22;1433;49.976;8.342;2022-08-11T14:11:21;44.10;99.90
2851;DHT22;1433;49.976;8.342;2022-08-11T14:14:06;43.90;99.90
2851;DHT22;1433;49.976;8.342;2022-08-11T14:16:37;43.70;99.90
2851;DHT22;1433;49.976;8.342;2022-08-11T14:19:06;43.80;99.90
2851;DHT22;1433;49.976;8.342;2022-08-11T14:21:37;44.10;99.90
2851;DHT22;1433;49.976;8.342;2022-08-11T14:24:25;43.70;99.90
2851;DHT22;1433;49.976;8.342;2022-08-11T14:26:53;43.30;99.90
2851;DHT22;1433;49.976;8.342;2022-08-11T14:29:21;43.50;99.90
2851;DHT22;1433;49.976;8.342;2022-08-11T14:31:52;43.70;99.90
2851;DHT22;1433;49.976;8.342;2022-08-11T14:37:08;43.80;99.90
2851;DHT22;1433;49.976;8.342;2022-08-11T14:39:47;43.70;99.90
2851;DHT22;1433;49.976;8.342;2022-08-11T14:42:16;43.50;99.90
2851;DHT22;1433;49.976;8.342;2022-08-11T14:45:07;43.30;99.90
2851;DHT22;1433;49.976;8.342;2022-08-11T14:47:54;42.90;99.90
2851;DHT22;1433;49.976;8.342;2022-08-11T14:50:23;42.80;99.90
2851;DHT22;1433;49.976;8.342;2022-08-11T14:52:55;42.40;99.90
2851;DHT22;1433;49.976;8.342;2022-08-11T14:55:24;42.40;99.90
2851;DHT22;1433;49.976;8.342;2022-08-11T14:58:12;42.60;99.90
2851;DHT22;1433;49.976;8.342;2022-08-11T15:00:40;42.80;99.90
2851;DHT22;1433;49.976;8.342;2022-08-11T15:03:07;42.80;99.90
2851;DHT22;1433;49.976;8.342;2022-08-11T15:05:46;42.80;99.90
2851;DHT22;1433;49.976;8.342;2022-08-11T15:08:17;43.00;99.90
2851;DHT22;1433;49.976;8.342;2022-08-11T15:10:45;43.00;99.90
2851;DHT22;1433;49.976;8.342;2022-08-11T15:13:16;43.10;99.90
2851;DHT22;1433;49.976;8.342;2022-08-11T15:15:46;43.20;99.90
2851;DHT22;1433;49.976;8.342;2022-08-11T15:18:31;43.20;99.90
2851;DHT22;1433;49.976;8.342;2022-08-11T15:20:58;43.10;99.90
2851;DHT22;1433;49.976;8.342;2022-08-11T15:23:43;43.30;99.90
2851;DHT22;1433;49.976;8.342;2022-08-11T15:26:31;43.00;99.90
2851;DHT22;1433;49.976;8.342;2022-08-11T15:29:05;42.90;99.90
2851;DHT22;1433;49.976;8.342;2022-08-11T15:31:51;42.50;99.90
2851;DHT22;1433;49.976;8.342;2022-08-11T15:34:37;42.50;99.90
2851;DHT22;1433;49.976;8.342;2022-08-11T15:37:24;42.50;99.90
2851;DHT22;1433;49.976;8.342;2022-08-11T15:40:00;42.40;99.90
2851;DHT22;1433;49.976;8.342;2022-08-11T15:43:03;42.10;99.90
2851;DHT22;1433;49.976;8.342;2022-08-11T15:45:49;42.10;99.90
2851;DHT22;1433;49.976;8.342;2022-08-11T15:48:26;42.40;99.90
2851;DHT22;1433;49.976;8.342;2022-08-11T15:50:52;42.40;99.90
2851;DHT22;1433;49.976;8.342;2022-08-11T15:53:40;42.40;99.90
2851;DHT22;1433;49.976;8.342;2022-08-11T15:56:09;42.60;99.90
2851;DHT22;1433;49.976;8.342;2022-08-11T15:58:46;42.70;99.90
2851;DHT22;1433;49.976;8.342;2022-08-11T16:01:28;42.20;99.90
2851;DHT22;1433;49.976;8.342;2022-08-11T16:04:16;41.20;99.90
2851;DHT22;1433;49.976;8.342;2022-08-11T16:06:53;41.10;99.90
2851;DHT22;1433;49.976;8.342;2022-08-11T16:12:07;41.70;99.90
2851;DHT22;1433;49.976;8.342;2022-08-11T16:14:43;40.60;99.90
2851;DHT22;1433;49.976;8.342;2022-08-11T16:17:27;39.90;99.90
2851;DHT22;1433;49.976;8.342;2022-08-11T16:19:56;39.90;99.90
2851;DHT22;1433;49.976;8.342;2022-08-11T16:22:26;39.80;99.90
2851;DHT22;1433;49.976;8.342;2022-08-11T16:24:56;39.50;99.90
2851;DHT22;1433;49.976;8.342;2022-08-11T16:27:23;39.40;99.90
2851;DHT22;1433;49.976;8.342;2022-08-11T16:29:52;39.20;99.90
2851;DHT22;1433;49.976;8.342;2022-08-11T16:32:21;38.40;99.90
2851;DHT22;1433;49.976;8.342;2022-08-11T16:34:52;38.20;99.90
2851;DHT22;1433;49.976;8.342;2022-08-11T16:37:37;38.30;99.90
2851;DHT22;1433;49.976;8.342;2022-08-11T16:40:23;38.70;99.90
2851;DHT22;1433;49.976;8.342;2022-08-11T16:42:51;38.50;99.90
2851;DHT22;1433;49.976;8.342;2022-08-11T16:45:38;37.20;99.90
2851;DHT22;1433;49.976;8.342;2022-08-11T16:48:27;36.80;99.90
2851;DHT22;1433;49.976;8.342;2022-08-11T16:50:54;36.80;99.90
2851;DHT22;1433;49.976;8.342;2022-08-11T16:53:21;36.90;99.90
2851;DHT22;1433;49.976;8.342;2022-08-11T16:55:48;36.80;99.90
2851;DHT22;1433;49.976;8.342;2022-08-11T16:58:16;36.50;99.90
2851;DHT22;1433;49.976;8.342;2022-08-11T17:01:02;35.80;99.90
2851;DHT22;1433;49.976;8.342;2022-08-11T17:03:29;35.50;99.90
2851;DHT22;1433;49.976;8.342;2022-08-11T17:06:16;35.10;99.90
2851;DHT22;1433;49.976;8.342;2022-08-11T17:09:02;34.70;99.90
2851;DHT22;1433;49.976;8.342;2022-08-11T17:11:55;34.40;99.90
2851;DHT22;1433;49.976;8.342;2022-08-11T17:17:26;34.10;99.90
2851;DHT22;1433;49.976;8.342;2022-08-11T17:19:56;33.90;99.90
2851;DHT22;1433;49.976;8.342;2022-08-11T17:22:24;33.70;99.90
2851;DHT22;1433;49.976;8.342;2022-08-11T17:25:09;33.40;99.90
2851;DHT22;1433;49.976;8.342;2022-08-11T17:27:37;33.00;99.90
2851;DHT22;1433;49.976;8.342;2022-08-11T17:30:06;32.60;99.90
2851;DHT22;1433;49.976;8.342;2022-08-11T17:35:22;32.00;99.90
2851;DHT22;1433;49.976;8.342;2022-08-11T17:37:52;31.60;99.90
2851;DHT22;1433;49.976;8.342;2022-08-11T17:40:21;31.40;99.90
2851;DHT22;1433;49.976;8.342;2022-08-11T17:42:52;31.20;99.90
2851;DHT22;1433;49.976;8.342;2022-08-11T17:45:39;31.00;99.90
2851;DHT22;1433;49.976;8.342;2022-08-11T17:48:08;30.80;99.90
2851;DHT22;1433;49.976;8.342;2022-08-11T17:51:00;30.60;99.90
2851;DHT22;1433;49.976;8.342;2022-08-11T17:53:28;30.40;99.90
2851;DHT22;1433;49.976;8.342;2022-08-11T17:56:14;30.20;99.90
2851;DHT22;1433;49.976;8.342;2022-08-11T17:59:00;30.10;99.90
2851;DHT22;1433;49.976;8.342;2022-08-11T18:01:46;30.00;99.90
2851;DHT22;1433;49.976;8.342;2022-08-11T18:04:15;29.80;99.90
2851;DHT22;1433;49.976;8.342;2022-08-11T18:06:42;29.70;99.90
2851;DHT22;1433;49.976;8.342;2022-08-11T18:09:12;29.60;99.90
2851;DHT22;1433;49.976;8.342;2022-08-11T18:11:58;29.50;99.90
2851;DHT22;1433;49.976;8.342;2022-08-11T18:14:46;29.30;99.90
2851;DHT22;1433;49.976;8.342;2022-08-11T18:17:31;29.20;99.90
2851;DHT22;1433;49.976;8.342;2022-08-11T18:20:17;29.00;99.90
2851;DHT22;1433;49.976;8.342;2022-08-11T18:23:04;28.90;99.90
2851;DHT22;1433;49.976;8.342;2022-08-11T18:25:53;28.80;99.90
2851;DHT22;1433;49.976;8.342;2022-08-11T18:28:44;28.60;99.90
2851;DHT22;1433;49.976;8.342;2022-08-11T18:31:32;28.40;99.90
2851;DHT22;1433;49.976;8.342;2022-08-11T18:34:27;28.30;99.90
2851;DHT22;1433;49.976;8.342;2022-08-11T18:37:23;28.10;99.90
2851;DHT22;1433;49.976;8.342;2022-08-11T18:40:07;28.00;99.90
2851;DHT22;1433;49.976;8.342;2022-08-11T18:42:56;27.80;99.90
2851;DHT22;1433;49.976;8.342;2022-08-11T18:45:41;27.60;99.90
2851;DHT22;1433;49.976;8.342;2022-08-11T18:48:29;27.50;99.90
2851;DHT22;1433;49.976;8.342;2022-08-11T18:51:15;27.30;99.90
2851;DHT22;1433;49.976;8.342;2022-08-11T18:54:04;27.20;99.90
2851;DHT22;1433;49.976;8.342;2022-08-11T18:56:50;27.10;99.90
2851;DHT22;1433;49.976;8.342;2022-08-11T18:59:37;26.90;99.90
2851;DHT22;1433;49.976;8.342;2022-08-11T19:02:24;26.70;99.90
2851;DHT22;1433;49.976;8.342;2022-08-11T19:05:10;26.50;99.90
2851;DHT22;1433;49.976;8.342;2022-08-11T19:07:57;26.30;99.90
2851;DHT22;1433;49.976;8.342;2022-08-11T19:10:44;26.20;99.90
2851;DHT22;1433;49.976;8.342;2022-08-11T19:13:29;26.00;99.90
2851;DHT22;1433;49.976;8.342;2022-08-11T19:16:16;25.80;99.90
2851;DHT22;1433;49.976;8.342;2022-08-11T19:19:03;25.60;99.90
2851;DHT22;1433;49.976;8.342;2022-08-11T19:21:49;25.40;99.90
2851;DHT22;1433;49.976;8.342;2022-08-11T19:24:36;25.30;99.90
2851;DHT22;1433;49.976;8.342;2022-08-11T19:27:23;25.10;99.90
2851;DHT22;1433;49.976;8.342;2022-08-11T19:30:08;24.80;99.90
2851;DHT22;1433;49.976;8.342;2022-08-11T19:32:53;24.80;99.90
2851;DHT22;1433;49.976;8.342;2022-08-11T19:35:39;24.70;99.90
2851;DHT22;1433;49.976;8.342;2022-08-11T19:38:25;24.60;99.90
2851;DHT22;1433;49.976;8.342;2022-08-11T19:41:10;24.50;99.90
2851;DHT22;1433;49.976;8.342;2022-08-11T19:43:56;24.30;99.90
2851;DHT22;1433;49.976;8.342;2022-08-11T19:46:41;24.30;99.90
2851;DHT22;1433;49.976;8.342;2022-08-11T19:49:27;24.30;99.90
2851;DHT22;1433;49.976;8.342;2022-08-11T19:52:13;24.30;99.90
2851;DHT22;1433;49.976;8.342;2022-08-11T19:54:58;24.30;99.90
2851;DHT22;1433;49.976;8.342;2022-08-11T19:57:44;24.30;99.90
2851;DHT22;1433;49.976;8.342;2022-08-11T20:00:29;24.30;99.90
2851;DHT22;1433;49.976;8.342;2022-08-11T20:03:14;24.30;99.90
2851;DHT22;1433;49.976;8.342;2022-08-11T20:06:01;24.40;99.90
2851;DHT22;1433;49.976;8.342;2022-08-11T20:08:48;24.50;99.90
2851;DHT22;1433;49.976;8.342;2022-08-11T20:11:36;24.50;99.90
2851;DHT22;1433;49.976;8.342;2022-08-11T20:14:23;24.50;99.90
2851;DHT22;1433;49.976;8.342;2022-08-11T20:17:10;24.50;99.90
2851;DHT22;1433;49.976;8.342;2022-08-11T20:19:56;24.50;99.90
2851;DHT22;1433;49.976;8.342;2022-08-11T20:22:42;24.50;99.90
2851;DHT22;1433;49.976;8.342;2022-08-11T20:25:28;24.60;99.90
2851;DHT22;1433;49.976;8.342;2022-08-11T20:28:15;24.70;99.90
2851;DHT22;1433;49.976;8.342;2022-08-11T20:31:01;24.70;99.90
2851;DHT22;1433;49.976;8.342;2022-08-11T20:33:47;24.70;99.90
2851;DHT22;1433;49.976;8.342;2022-08-11T20:36:33;24.70;99.90
2851;DHT22;1433;49.976;8.342;2022-08-11T20:39:19;24.60;99.90